Time;durP1;ratioP1;P1;durP2;ratioP2;P2;SDS_P1;SDS_P2;PMS_P1;PMS_P2;Temp;Humidity;BMP_temperature;BMP_pressure;BME280_temperature;BME280_humidity;BME280_pressure;Samples;Min_cycle;Max_cycle;Signal;HPM_P1;HPM_P2
2023/06/26 00:00:34;;;;;;;6.00;5.40;;;;;;;;;;5073669;28;20190;-53
2023/06/26 00:03:00;;;;;;;6.27;5.67;;;;;;;;;;5073698;28;20223;-53
2023/06/26 00:05:27;;;;;;;6.30;5.70;;;;;;;;;;5073699;28;20237;-54
2023/06/26 00:07:53;;;;;;;6.53;5.93;;;;;;;;;;5073589;28;20204;-53
2023/06/26 00:10:21;;;;;;;6.57;5.87;;;;;;;;;;5073569;28;20621;-53
2023/06/26 00:12:47;;;;;;;6.50;6.00;;;;;;;;;;5073534;28;20192;-54
2023/06/26 00:15:13;;;;;;;5.93;5.43;;;;;;;;;;5073587;28;20275;-54
2023/06/26 00:17:39;;;;;;;6.40;5.77;;;;;;;;;;5073004;28;20199;-55
2023/06/26 00:20:05;;;;;;;6.30;5.77;;;;;;;;;;5070183;28;20210;-56
2023/06/26 00:22:31;;;;;;;5.97;5.47;;;;;;;;;;5073416;28;20261;-53
2023/06/26 00:24:57;;;;;;;6.00;5.50;;;;;;;;;;5073467;28;20200;-55
2023/06/26 00:27:24;;;;;;;6.10;5.60;;;;;;;;;;5073428;28;20234;-55
2023/06/26 00:29:52;;;;;;;7.30;6.60;;;;;;;;;;5073307;28;20681;-55
2023/06/26 00:32:18;;;;;;;6.27;5.67;;;;;;;;;;5073390;28;20191;-53
2023/06/26 00:34:46;;;;;;;6.30;5.80;;;;;;;;;;5073239;28;20245;-51
2023/06/26 00:37:12;;;;;;;6.90;6.20;;;;;;;;;;5073384;28;20571;-53
2023/06/26 00:39:38;;;;;;;6.60;6.00;;;;;;;;;;5073093;28;20202;-53
2023/06/26 00:42:04;;;;;;;6.90;6.30;;;;;;;;;;5071830;28;20219;-53
2023/06/26 00:44:32;;;;;;;7.50;6.50;;;;;;;;;;5071977;28;20620;-57
2023/06/26 00:46:58;;;;;;;6.30;5.77;;;;;;;;;;5072755;28;20204;-55
2023/06/26 00:49:24;;;;;;;7.10;6.23;;;;;;;;;;5072808;28;20206;-57
2023/06/26 00:51:50;;;;;;;6.77;6.17;;;;;;;;;;5072677;28;20236;-55
2023/06/26 00:54:19;;;;;;;6.63;6.03;;;;;;;;;;5072686;28;20195;-55
2023/06/26 00:56:46;;;;;;;6.27;5.67;;;;;;;;;;5072557;28;20195;-55
2023/06/26 00:59:12;;;;;;;6.47;5.97;;;;;;;;;;5072629;28;20196;-56
2023/06/26 01:01:39;;;;;;;6.00;5.50;;;;;;;;;;5072620;28;20338;-55
2023/06/26 01:04:05;;;;;;;6.60;5.90;;;;;;;;;;5072540;28;20199;-55
2023/06/26 01:06:35;;;;;;;7.37;5.90;;;;;;;;;;5072255;28;20561;-55
2023/06/26 01:09:01;;;;;;;6.40;5.40;;;;;;;;;;5071914;28;20227;-54
2023/06/26 01:11:27;;;;;;;6.20;5.70;;;;;;;;;;5072430;28;20237;-56
2023/06/26 01:13:55;;;;;;;5.93;5.43;;;;;;;;;;5072347;28;20249;-54
2023/06/26 01:16:22;;;;;;;6.90;6.30;;;;;;;;;;5072373;28;20196;-54
2023/06/26 01:18:49;;;;;;;5.93;5.43;;;;;;;;;;5072041;28;20199;-54
2023/06/26 01:21:16;;;;;;;6.57;5.97;;;;;;;;;;5072152;28;20223;-55
2023/06/26 01:23:48;;;;;;;6.50;5.90;;;;;;;;;;5071883;28;20231;-56
2023/06/26 01:26:19;;;;;;;6.40;5.87;;;;;;;;;;5071886;28;20242;-56
2023/06/26 01:28:45;;;;;;;6.93;6.17;;;;;;;;;;5071935;28;20214;-55
2023/06/26 01:31:12;;;;;;;6.23;5.70;;;;;;;;;;5071963;28;20201;-54
2023/06/26 01:33:38;;;;;;;6.50;6.00;;;;;;;;;;5072103;28;20238;-54
2023/06/26 01:36:04;;;;;;;6.57;5.97;;;;;;;;;;5071876;28;20211;-55
2023/06/26 01:38:30;;;;;;;6.73;6.13;;;;;;;;;;5071701;28;20204;-56
2023/06/26 01:40:57;;;;;;;6.20;5.70;;;;;;;;;;5071477;28;20192;-55
2023/06/26 01:43:28;;;;;;;6.77;6.17;;;;;;;;;;5071709;28;20682;-55
2023/06/26 01:45:59;;;;;;;6.77;5.57;;;;;;;;;;5071914;28;20203;-55
2023/06/26 01:48:28;;;;;;;6.43;5.83;;;;;;;;;;5071680;28;20554;-56
2023/06/26 01:50:54;;;;;;;8.03;7.17;;;;;;;;;;5071498;28;20297;-55
2023/06/26 01:53:25;;;;;;;6.47;5.87;;;;;;;;;;5071568;28;20294;-56
2023/06/26 01:55:54;;;;;;;6.60;6.00;;;;;;;;;;5071511;28;20192;-56
2023/06/26 01:58:21;;;;;;;6.57;5.90;;;;;;;;;;5071688;28;20199;-57
2023/06/26 02:00:48;;;;;;;6.70;6.10;;;;;;;;;;5071306;28;20211;-57
2023/06/26 02:03:14;;;;;;;6.83;5.97;;;;;;;;;;5071439;28;20247;-54
2023/06/26 02:05:40;;;;;;;6.67;5.90;;;;;;;;;;5071220;28;20305;-56
2023/06/26 02:08:07;;;;;;;8.07;5.70;;;;;;;;;;5071258;28;20203;-55
2023/06/26 02:10:34;;;;;;;7.43;6.67;;;;;;;;;;5071329;28;20271;-56
2023/06/26 02:13:00;;;;;;;7.20;6.50;;;;;;;;;;5071466;28;20229;-57
2023/06/26 02:15:26;;;;;;;6.67;6.07;;;;;;;;;;5071202;28;20191;-56
2023/06/26 02:17:53;;;;;;;6.33;5.83;;;;;;;;;;5071215;28;20534;-57
2023/06/26 02:20:19;;;;;;;7.13;6.53;;;;;;;;;;5070942;28;20210;-56
2023/06/26 02:22:45;;;;;;;6.73;6.07;;;;;;;;;;5069495;28;20223;-56
2023/06/26 02:25:12;;;;;;;6.43;5.90;;;;;;;;;;5071043;28;20714;-57
2023/06/26 02:27:38;;;;;;;7.07;6.33;;;;;;;;;;5070799;28;20238;-56
2023/06/26 02:30:04;;;;;;;7.23;6.53;;;;;;;;;;5070895;28;20848;-57
2023/06/26 02:32:30;;;;;;;8.40;6.23;;;;;;;;;;5070958;28;20658;-57
2023/06/26 02:34:57;;;;;;;6.27;5.77;;;;;;;;;;5070905;28;20678;-57
2023/06/26 02:37:23;;;;;;;7.10;6.00;;;;;;;;;;5070994;28;20222;-57
2023/06/26 02:39:49;;;;;;;7.20;6.50;;;;;;;;;;5070815;28;20663;-56
2023/06/26 02:42:15;;;;;;;6.97;6.37;;;;;;;;;;5070876;28;20258;-54
2023/06/26 02:44:41;;;;;;;7.13;6.43;;;;;;;;;;5070836;28;20195;-54
2023/06/26 02:47:07;;;;;;;6.60;5.97;;;;;;;;;;5070897;28;20669;-54
2023/06/26 02:49:33;;;;;;;6.40;5.90;;;;;;;;;;5070728;28;20249;-55
2023/06/26 02:52:00;;;;;;;6.97;6.30;;;;;;;;;;5070708;28;20196;-55
2023/06/26 02:54:27;;;;;;;6.73;6.13;;;;;;;;;;5070712;28;20744;-55
2023/06/26 02:56:53;;;;;;;6.50;5.93;;;;;;;;;;5070675;28;20290;-54
2023/06/26 02:59:19;;;;;;;6.23;5.73;;;;;;;;;;5070874;28;20282;-55
2023/06/26 03:01:45;;;;;;;6.93;6.33;;;;;;;;;;5070379;28;20716;-55
2023/06/26 03:04:11;;;;;;;6.97;6.37;;;;;;;;;;5070394;28;20191;-54
2023/06/26 03:06:37;;;;;;;6.87;6.27;;;;;;;;;;5070063;28;20199;-55
2023/06/26 03:09:04;;;;;;;6.70;6.10;;;;;;;;;;5070513;28;20219;-55
2023/06/26 03:11:30;;;;;;;6.30;5.80;;;;;;;;;;5070569;28;20205;-55
2023/06/26 03:13:56;;;;;;;7.33;6.20;;;;;;;;;;5070551;28;20673;-55
2023/06/26 03:16:22;;;;;;;6.50;6.00;;;;;;;;;;5070348;28;20256;-55
2023/06/26 03:18:48;;;;;;;7.23;6.60;;;;;;;;;;5070633;28;20548;-55
2023/06/26 03:21:14;;;;;;;6.60;6.00;;;;;;;;;;5070850;28;20248;-55
2023/06/26 03:23:40;;;;;;;6.97;6.13;;;;;;;;;;5070550;28;20407;-55
2023/06/26 03:26:07;;;;;;;6.60;6.00;;;;;;;;;;5070424;28;20322;-57
2023/06/26 03:28:33;;;;;;;7.73;5.80;;;;;;;;;;5070591;28;20211;-55
2023/06/26 03:30:59;;;;;;;7.57;6.47;;;;;;;;;;5070366;28;20199;-55
2023/06/26 03:33:25;;;;;;;6.63;6.03;;;;;;;;;;5073446;28;20239;-54
2023/06/26 03:35:52;;;;;;;7.83;5.90;;;;;;;;;;5074005;28;20274;-54
2023/06/26 03:38:18;;;;;;;6.30;5.80;;;;;;;;;;5074065;28;20272;-55
2023/06/26 03:40:43;;;;;;;6.23;5.73;;;;;;;;;;5073943;28;20199;-55
2023/06/26 03:43:11;;;;;;;5.97;5.37;;;;;;;;;;5073955;28;20215;-54
2023/06/26 03:45:37;;;;;;;6.80;6.13;;;;;;;;;;5073921;28;20203;-55
2023/06/26 03:48:03;;;;;;;8.03;5.87;;;;;;;;;;5074056;28;20196;-55
2023/06/26 03:50:29;;;;;;;6.43;5.73;;;;;;;;;;5073947;28;20200;-54
2023/06/26 03:52:55;;;;;;;6.30;5.60;;;;;;;;;;5073720;28;20206;-55
2023/06/26 03:55:23;;;;;;;6.20;5.60;;;;;;;;;;5073719;28;20191;-54
2023/06/26 03:57:49;;;;;;;6.47;5.83;;;;;;;;;;5073713;28;20199;-54
2023/06/26 04:00:17;;;;;;;6.60;5.87;;;;;;;;;;5073862;28;20199;-54
2023/06/26 04:02:43;;;;;;;5.67;5.17;;;;;;;;;;5073572;28;20274;-54
2023/06/26 04:05:09;;;;;;;6.07;5.43;;;;;;;;;;5073572;28;20227;-55
2023/06/26 04:07:35;;;;;;;6.00;5.40;;;;;;;;;;5073376;28;20196;-55
2023/06/26 04:10:01;;;;;;;5.90;5.40;;;;;;;;;;5073654;28;20603;-55
2023/06/26 04:12:27;;;;;;;6.40;5.83;;;;;;;;;;5073591;28;20206;-55
2023/06/26 04:14:53;;;;;;;5.47;5.00;;;;;;;;;;5073618;28;20299;-55
2023/06/26 04:17:21;;;;;;;5.80;5.20;;;;;;;;;;5073473;28;20263;-55
2023/06/26 04:19:47;;;;;;;5.63;5.13;;;;;;;;;;5073207;28;20278;-54
2023/06/26 04:22:13;;;;;;;6.77;5.10;;;;;;;;;;5073091;28;20322;-55
2023/06/26 04:24:39;;;;;;;5.70;5.30;;;;;;;;;;5073164;28;20203;-55
2023/06/26 04:27:06;;;;;;;5.80;5.20;;;;;;;;;;5072994;28;20239;-54
2023/06/26 04:29:32;;;;;;;5.77;5.30;;;;;;;;;;5073160;28;20648;-55
2023/06/26 04:31:58;;;;;;;6.17;5.57;;;;;;;;;;5073059;28;20728;-54
2023/06/26 04:34:25;;;;;;;5.73;5.03;;;;;;;;;;5073119;28;20207;-54
2023/06/26 04:36:51;;;;;;;5.73;5.27;;;;;;;;;;5073004;28;20261;-55
2023/06/26 04:39:17;;;;;;;6.90;5.63;;;;;;;;;;5073001;28;20207;-55
2023/06/26 04:41:43;;;;;;;5.60;5.10;;;;;;;;;;5072777;28;20255;-55
2023/06/26 04:44:09;;;;;;;6.43;5.67;;;;;;;;;;5072362;28;20196;-54
2023/06/26 04:46:35;;;;;;;6.73;5.30;;;;;;;;;;5072771;28;20202;-55
2023/06/26 04:49:03;;;;;;;5.77;5.27;;;;;;;;;;5072572;28;20203;-55
2023/06/26 04:51:30;;;;;;;5.70;5.20;;;;;;;;;;5072625;28;20192;-55
2023/06/26 04:53:56;;;;;;;6.20;5.07;;;;;;;;;;5072646;28;20565;-54
2023/06/26 04:56:22;;;;;;;6.00;5.37;;;;;;;;;;5072674;28;20203;-54
2023/06/26 04:58:48;;;;;;;6.43;5.40;;;;;;;;;;5072429;28;20191;-55
2023/06/26 05:01:14;;;;;;;6.60;5.93;;;;;;;;;;5072585;28;20192;-55
2023/06/26 05:03:40;;;;;;;6.00;5.40;;;;;;;;;;5072451;28;20215;-55
2023/06/26 05:06:06;;;;;;;5.60;4.90;;;;;;;;;;5072430;28;20223;-55
2023/06/26 05:08:33;;;;;;;5.87;5.37;;;;;;;;;;5072447;28;20199;-54
2023/06/26 05:10:59;;;;;;;7.23;5.43;;;;;;;;;;5072159;28;20282;-55
2023/06/26 05:13:26;;;;;;;5.43;4.93;;;;;;;;;;5071999;28;20250;-56
2023/06/26 05:15:52;;;;;;;5.40;4.90;;;;;;;;;;5072139;28;20294;-55
2023/06/26 05:18:18;;;;;;;5.20;4.80;;;;;;;;;;5071835;28;20196;-55
2023/06/26 05:20:45;;;;;;;5.30;4.90;;;;;;;;;;5072195;28;20800;-56
2023/06/26 05:23:12;;;;;;;6.00;5.40;;;;;;;;;;5071945;28;20281;-55
2023/06/26 05:25:40;;;;;;;5.70;5.20;;;;;;;;;;5071804;28;20238;-55
2023/06/26 05:28:09;;;;;;;5.03;4.53;;;;;;;;;;5071829;28;20214;-55
2023/06/26 05:30:36;;;;;;;5.50;4.50;;;;;;;;;;5072017;28;20725;-55
2023/06/26 05:33:02;;;;;;;5.47;4.97;;;;;;;;;;5071726;28;20195;-55
2023/06/26 05:35:29;;;;;;;5.90;5.30;;;;;;;;;;5071790;28;20286;-56
2023/06/26 05:37:55;;;;;;;5.43;4.40;;;;;;;;;;5071587;28;20202;-55
2023/06/26 05:40:22;;;;;;;5.70;5.13;;;;;;;;;;5071757;28;20266;-55
2023/06/26 05:42:50;;;;;;;5.73;5.13;;;;;;;;;;5071653;28;20219;-55
2023/06/26 05:45:16;;;;;;;5.07;4.67;;;;;;;;;;5071536;28;20206;-55
2023/06/26 05:47:42;;;;;;;6.10;5.50;;;;;;;;;;5071490;28;20200;-54
2023/06/26 05:50:09;;;;;;;5.60;4.87;;;;;;;;;;5071377;28;20658;-55
2023/06/26 05:52:35;;;;;;;5.40;4.90;;;;;;;;;;5071584;28;20242;-55
2023/06/26 05:55:02;;;;;;;5.50;5.10;;;;;;;;;;5071003;28;20203;-55
2023/06/26 05:57:28;;;;;;;5.67;5.17;;;;;;;;;;5070873;28;20192;-59
2023/06/26 05:59:56;;;;;;;7.23;4.97;;;;;;;;;;5071260;28;20231;-55
2023/06/26 06:02:22;;;;;;;6.33;5.20;;;;;;;;;;5071363;28;20319;-55
2023/06/26 06:04:48;;;;;;;6.03;5.20;;;;;;;;;;5071191;28;20301;-56
2023/06/26 06:07:15;;;;;;;5.50;5.00;;;;;;;;;;5071239;28;20196;-55
2023/06/26 06:09:40;;;;;;;5.67;4.97;;;;;;;;;;5071146;28;20249;-55
2023/06/26 06:12:07;;;;;;;5.23;4.83;;;;;;;;;;5071075;28;20203;-55
2023/06/26 06:14:33;;;;;;;5.70;5.20;;;;;;;;;;5071081;28;20212;-55
2023/06/26 06:17:00;;;;;;;5.67;5.17;;;;;;;;;;5070771;28;20200;-55
2023/06/26 06:19:26;;;;;;;7.43;4.63;;;;;;;;;;5070890;28;20185;-55
2023/06/26 06:21:52;;;;;;;5.23;4.83;;;;;;;;;;5070831;28;20725;-55
2023/06/26 06:24:18;;;;;;;5.90;5.03;;;;;;;;;;5071034;28;20613;-55
2023/06/26 06:26:44;;;;;;;4.87;4.47;;;;;;;;;;5070803;28;20275;-55
2023/06/26 06:29:10;;;;;;;4.73;4.23;;;;;;;;;;5070818;28;20202;-55
2023/06/26 06:31:36;;;;;;;5.07;4.57;;;;;;;;;;5071006;28;20574;-55
2023/06/26 06:34:04;;;;;;;7.63;4.63;;;;;;;;;;5070704;28;20250;-55
2023/06/26 06:36:30;;;;;;;6.50;5.10;;;;;;;;;;5070964;28;20205;-56
2023/06/26 06:38:56;;;;;;;6.10;4.80;;;;;;;;;;5070650;28;20593;-56
2023/06/26 06:41:22;;;;;;;5.50;5.00;;;;;;;;;;5070798;28;20667;-56
2023/06/26 06:43:48;;;;;;;4.80;4.40;;;;;;;;;;5070722;28;20199;-56
2023/06/26 06:46:14;;;;;;;5.93;5.20;;;;;;;;;;5070782;28;20197;-56
2023/06/26 06:48:40;;;;;;;5.67;4.67;;;;;;;;;;5070732;28;20280;-56
2023/06/26 06:51:08;;;;;;;7.43;5.27;;;;;;;;;;5070821;28;20198;-56
2023/06/26 06:53:34;;;;;;;4.97;4.40;;;;;;;;;;5070729;28;20210;-56
2023/06/26 06:56:00;;;;;;;5.17;4.67;;;;;;;;;;5070688;28;20210;-55
2023/06/26 06:58:26;;;;;;;5.77;5.27;;;;;;;;;;5070769;28;20247;-55
2023/06/26 07:00:52;;;;;;;5.70;5.20;;;;;;;;;;5070464;28;20641;-55
2023/06/26 07:03:18;;;;;;;5.53;5.03;;;;;;;;;;5070595;28;20234;-55
2023/06/26 07:05:44;;;;;;;6.23;5.00;;;;;;;;;;5069110;28;20265;-56
2023/06/26 07:08:11;;;;;;;5.23;4.73;;;;;;;;;;5073135;28;20617;-56
2023/06/26 07:10:37;;;;;;;5.77;5.17;;;;;;;;;;5074658;28;20281;-55
2023/06/26 07:13:03;;;;;;;6.33;5.60;;;;;;;;;;5074439;28;20206;-55
2023/06/26 07:15:29;;;;;;;5.70;5.20;;;;;;;;;;5074677;28;20199;-55
2023/06/26 07:17:55;;;;;;;6.57;5.47;;;;;;;;;;5074520;28;20685;-55
2023/06/26 07:20:21;;;;;;;6.47;5.30;;;;;;;;;;5074583;28;20213;-55
2023/06/26 07:22:47;;;;;;;6.07;5.57;;;;;;;;;;5074280;28;20219;-55
2023/06/26 07:25:14;;;;;;;6.53;5.20;;;;;;;;;;5074518;28;20617;-55
2023/06/26 07:27:41;;;;;;;7.13;5.27;;;;;;;;;;5074238;28;20310;-55
2023/06/26 07:30:11;;;;;;;6.13;5.03;;;;;;;;;;5074107;28;20684;-56
2023/06/26 07:32:37;;;;;;;6.03;5.53;;;;;;;;;;5074251;28;20557;-55
2023/06/26 07:35:04;;;;;;;5.43;5.00;;;;;;;;;;5074130;28;20741;-55
2023/06/26 07:37:30;;;;;;;6.70;5.70;;;;;;;;;;5074167;28;20226;-55
2023/06/26 07:39:56;;;;;;;9.63;5.77;;;;;;;;;;5073974;28;20495;-55
2023/06/26 07:42:23;;;;;;;6.70;5.17;;;;;;;;;;5073977;28;20655;-53
2023/06/26 07:44:49;;;;;;;6.53;5.67;;;;;;;;;;5073946;28;20210;-53
2023/06/26 07:47:15;;;;;;;8.50;5.00;;;;;;;;;;5073840;28;20206;-53
2023/06/26 07:49:41;;;;;;;6.13;5.00;;;;;;;;;;5073709;28;20207;-53
2023/06/26 07:52:10;;;;;;;7.23;5.80;;;;;;;;;;5073715;28;20192;-53
2023/06/26 07:54:36;;;;;;;7.47;5.67;;;;;;;;;;5073748;28;20241;-53
2023/06/26 07:57:07;;;;;;;5.70;5.20;;;;;;;;;;5073615;28;20203;-53
2023/06/26 07:59:34;;;;;;;6.13;5.13;;;;;;;;;;5074024;28;20249;-54
2023/06/26 08:02:01;;;;;;;7.37;5.57;;;;;;;;;;5073566;28;20685;-53
2023/06/26 08:04:29;;;;;;;6.93;5.13;;;;;;;;;;5073587;28;20213;-54
2023/06/26 08:06:56;;;;;;;6.00;5.50;;;;;;;;;;5073381;28;20205;-55
2023/06/26 08:09:23;;;;;;;6.47;5.57;;;;;;;;;;5073519;28;20235;-54
2023/06/26 08:11:49;;;;;;;7.30;5.27;;;;;;;;;;5073490;28;20206;-54
2023/06/26 08:14:15;;;;;;;13.00;6.07;;;;;;;;;;5073525;28;20198;-54
2023/06/26 08:16:43;;;;;;;6.93;6.23;;;;;;;;;;5073364;28;20223;-53
2023/06/26 08:19:09;;;;;;;7.37;6.70;;;;;;;;;;5072320;28;20285;-53
2023/06/26 08:21:35;;;;;;;7.00;6.30;;;;;;;;;;5073149;28;20233;-53
2023/06/26 08:24:02;;;;;;;11.80;6.63;;;;;;;;;;5073135;28;20705;-53
2023/06/26 08:26:28;;;;;;;9.53;6.67;;;;;;;;;;5073049;28;20237;-53
2023/06/26 08:28:54;;;;;;;11.33;6.70;;;;;;;;;;5073220;28;20202;-53
2023/06/26 08:31:20;;;;;;;9.27;6.30;;;;;;;;;;5073266;28;20284;-54
2023/06/26 08:33:48;;;;;;;7.20;6.57;;;;;;;;;;5072979;28;20190;-53
2023/06/26 08:36:14;;;;;;;6.77;5.53;;;;;;;;;;5072966;28;20214;-53
2023/06/26 08:38:40;;;;;;;6.37;5.83;;;;;;;;;;5072909;28;20210;-53
2023/06/26 08:41:07;;;;;;;8.20;5.77;;;;;;;;;;5072892;28;20222;-53
2023/06/26 08:43:33;;;;;;;5.63;5.13;;;;;;;;;;5072868;28;20309;-53
2023/06/26 08:45:59;;;;;;;7.57;5.90;;;;;;;;;;5072829;28;20202;-53
2023/06/26 08:48:25;;;;;;;7.70;6.07;;;;;;;;;;5072683;28;20199;-54
2023/06/26 08:50:54;;;;;;;6.53;5.67;;;;;;;;;;5072490;28;20697;-52
2023/06/26 08:53:21;;;;;;;10.10;6.00;;;;;;;;;;5072674;28;20293;-53
2023/06/26 08:55:49;;;;;;;8.60;6.50;;;;;;;;;;5072572;28;20203;-53
2023/06/26 08:58:15;;;;;;;7.57;6.50;;;;;;;;;;5072642;28;20233;-51
2023/06/26 09:00:41;;;;;;;9.57;7.00;;;;;;;;;;5072553;28;20225;-51
2023/06/26 09:03:09;;;;;;;7.37;6.67;;;;;;;;;;5072337;28;20222;-53
2023/06/26 09:05:35;;;;;;;7.70;7.00;;;;;;;;;;5072463;28;20226;-52
2023/06/26 09:08:03;;;;;;;8.37;7.63;;;;;;;;;;5072212;28;20566;-52
2023/06/26 09:10:29;;;;;;;8.33;7.43;;;;;;;;;;5072461;28;20212;-52
2023/06/26 09:13:01;;;;;;;10.93;7.30;;;;;;;;;;5072209;28;20206;-52
2023/06/26 09:15:30;;;;;;;9.80;7.77;;;;;;;;;;5072304;28;20284;-53
2023/06/26 09:17:58;;;;;;;9.63;8.77;;;;;;;;;;5072130;28;20256;-52
2023/06/26 09:20:28;;;;;;;13.10;10.33;;;;;;;;;;5071969;28;20280;-53
2023/06/26 09:22:55;;;;;;;12.20;11.10;;;;;;;;;;5071922;28;20711;-52
2023/06/26 09:25:23;;;;;;;14.53;13.03;;;;;;;;;;5071980;28;20608;-54
2023/06/26 09:27:49;;;;;;;13.17;11.43;;;;;;;;;;5072022;28;20245;-52
2023/06/26 09:30:17;;;;;;;11.73;10.53;;;;;;;;;;5071833;28;20636;-51
2023/06/26 09:32:44;;;;;;;8.73;7.93;;;;;;;;;;5072031;28;20207;-50
2023/06/26 09:35:10;;;;;;;8.43;7.70;;;;;;;;;;5071841;28;20567;-57
2023/06/26 09:37:36;;;;;;;8.53;7.73;;;;;;;;;;5071804;28;20244;-57
2023/06/26 09:40:03;;;;;;;9.93;8.67;;;;;;;;;;5071632;28;20194;-56
2023/06/26 09:42:30;;;;;;;12.80;8.83;;;;;;;;;;5071466;28;20691;-59
2023/06/26 09:44:56;;;;;;;10.57;8.47;;;;;;;;;;5071312;28;20204;-55
2023/06/26 09:47:22;;;;;;;9.30;7.77;;;;;;;;;;5072080;28;20201;-55
2023/06/26 09:49:49;;;;;;;10.40;8.70;;;;;;;;;;5071802;28;20681;-54
2023/06/26 09:52:19;;;;;;;8.07;7.20;;;;;;;;;;5071728;28;20196;-54
2023/06/26 09:54:46;;;;;;;8.67;7.40;;;;;;;;;;5071915;28;20276;-54
2023/06/26 09:57:13;;;;;;;11.43;7.90;;;;;;;;;;5071831;28;20189;-55
2023/06/26 09:59:40;;;;;;;10.63;8.00;;;;;;;;;;5071680;28;20254;-55
2023/06/26 10:02:06;;;;;;;8.87;7.97;;;;;;;;;;5071599;28;20227;-53
2023/06/26 10:04:32;;;;;;;10.80;7.83;;;;;;;;;;5071542;28;20221;-54
2023/06/26 10:07:01;;;;;;;9.03;8.13;;;;;;;;;;5071531;28;20210;-54
2023/06/26 10:09:27;;;;;;;11.27;8.37;;;;;;;;;;5071509;28;20213;-54
2023/06/26 10:11:56;;;;;;;9.70;7.20;;;;;;;;;;5071530;28;20202;-54
2023/06/26 10:14:22;;;;;;;8.67;6.80;;;;;;;;;;5071585;28;20199;-54
2023/06/26 10:16:50;;;;;;;11.23;8.27;;;;;;;;;;5071611;28;20198;-55
2023/06/26 10:19:26;;;;;;;9.27;7.03;;;;;;;;;;5071392;28;20213;-54
2023/06/26 10:21:52;;;;;;;11.13;7.07;;;;;;;;;;5071198;28;20264;-55
2023/06/26 10:24:18;;;;;;;7.90;7.10;;;;;;;;;;5071572;28;20191;-54
2023/06/26 10:26:48;;;;;;;10.43;7.73;;;;;;;;;;5071472;28;20289;-54
2023/06/26 10:29:16;;;;;;;12.83;6.57;;;;;;;;;;5071494;28;20219;-54
2023/06/26 10:31:45;;;;;;;8.00;6.03;;;;;;;;;;5071328;28;20206;-55
2023/06/26 10:34:12;;;;;;;9.20;7.27;;;;;;;;;;5071296;28;20659;-54
2023/06/26 10:36:39;;;;;;;11.57;6.97;;;;;;;;;;5071183;28;20209;-54
2023/06/26 10:39:05;;;;;;;8.17;6.30;;;;;;;;;;5070884;28;20195;-54
2023/06/26 10:41:37;;;;;;;11.10;6.30;;;;;;;;;;5070801;28;20205;-55
2023/06/26 10:44:10;;;;;;;7.37;6.30;;;;;;;;;;5071128;28;20213;-54
2023/06/26 10:46:49;;;;;;;7.90;5.47;;;;;;;;;;5071168;28;20270;-54
2023/06/26 10:49:16;;;;;;;6.73;5.37;;;;;;;;;;5071057;28;20227;-54
2023/06/26 10:51:48;;;;;;;6.87;4.80;;;;;;;;;;5071075;28;20667;-54
2023/06/26 10:54:15;;;;;;;5.10;4.33;;;;;;;;;;5070975;28;20206;-54
2023/06/26 10:56:42;;;;;;;6.53;4.93;;;;;;;;;;5071110;28;20234;-54
2023/06/26 10:59:15;;;;;;;8.00;4.67;;;;;;;;;;5071012;28;20221;-54
2023/06/26 11:01:42;;;;;;;6.20;3.50;;;;;;;;;;5071113;28;20196;-54
2023/06/26 11:04:10;;;;;;;5.73;3.77;;;;;;;;;;5070788;28;20214;-54
2023/06/26 11:06:41;;;;;;;4.50;3.70;;;;;;;;;;5071106;28;20195;-54
2023/06/26 11:09:08;;;;;;;5.90;3.60;;;;;;;;;;5070942;28;20208;-54
2023/06/26 11:11:53;;;;;;;6.87;3.67;;;;;;;;;;5070943;28;20572;-54
2023/06/26 11:14:19;;;;;;;4.00;3.60;;;;;;;;;;5071113;28;20206;-54
2023/06/26 11:16:45;;;;;;;8.63;3.77;;;;;;;;;;5070751;28;20206;-54
2023/06/26 11:19:11;;;;;;;5.60;3.23;;;;;;;;;;5070865;28;20289;-54
2023/06/26 11:21:39;;;;;;;4.70;3.40;;;;;;;;;;5070622;28;20210;-54
2023/06/26 11:24:05;;;;;;;6.53;3.03;;;;;;;;;;5070876;28;20211;-54
2023/06/26 11:26:31;;;;;;;5.63;3.10;;;;;;;;;;5070634;28;20246;-54
2023/06/26 11:28:57;;;;;;;4.43;2.80;;;;;;;;;;5070374;28;20198;-54
2023/06/26 11:31:27;;;;;;;3.43;2.73;;;;;;;;;;5070559;28;20196;-54
2023/06/26 11:33:53;;;;;;;5.97;3.03;;;;;;;;;;5070463;28;20192;-54
2023/06/26 11:36:19;;;;;;;5.00;2.77;;;;;;;;;;5070506;28;20744;-54
2023/06/26 11:38:46;;;;;;;7.70;3.27;;;;;;;;;;5070489;28;20199;-54
2023/06/26 11:41:17;;;;;;;5.77;3.40;;;;;;;;;;5070369;28;20239;-54
2023/06/26 11:43:43;;;;;;;5.80;2.90;;;;;;;;;;5070418;28;20796;-54
2023/06/26 11:46:09;;;;;;;6.10;3.27;;;;;;;;;;5070385;28;20278;-54
2023/06/26 11:48:35;;;;;;;4.70;2.60;;;;;;;;;;5070767;28;20252;-54
2023/06/26 11:51:01;;;;;;;5.57;3.23;;;;;;;;;;5070550;28;20254;-54
2023/06/26 11:53:27;;;;;;;6.13;3.03;;;;;;;;;;5071704;28;20241;-54
2023/06/26 11:55:55;;;;;;;4.37;2.87;;;;;;;;;;5074008;28;20285;-54
2023/06/26 11:58:21;;;;;;;4.97;3.23;;;;;;;;;;5074034;28;20200;-54
2023/06/26 12:00:48;;;;;;;5.77;2.90;;;;;;;;;;5074034;28;20289;-54
2023/06/26 12:03:15;;;;;;;3.07;2.27;;;;;;;;;;5073829;28;20238;-54
2023/06/26 12:05:42;;;;;;;3.57;2.57;;;;;;;;;;5073831;28;20232;-54
2023/06/26 12:08:08;;;;;;;2.93;2.33;;;;;;;;;;5073830;28;20263;-54
2023/06/26 12:10:34;;;;;;;3.80;2.40;;;;;;;;;;5073981;28;20606;-54
2023/06/26 12:13:02;;;;;;;5.47;2.70;;;;;;;;;;5073874;28;20199;-54
2023/06/26 12:15:28;;;;;;;4.13;2.77;;;;;;;;;;5073907;28;20211;-54
2023/06/26 12:17:54;;;;;;;4.73;2.00;;;;;;;;;;5073549;28;20653;-54
2023/06/26 12:20:21;;;;;;;4.87;2.30;;;;;;;;;;5073862;28;20251;-54
2023/06/26 12:22:48;;;;;;;3.30;2.47;;;;;;;;;;5073438;28;20670;-54
2023/06/26 12:25:14;;;;;;;3.30;2.53;;;;;;;;;;5073770;28;20213;-54
2023/06/26 12:27:40;;;;;;;3.40;2.30;;;;;;;;;;5073455;28;20242;-54
2023/06/26 12:30:08;;;;;;;7.27;2.53;;;;;;;;;;5073521;28;20256;-54
2023/06/26 12:32:35;;;;;;;6.77;2.60;;;;;;;;;;5073508;28;20206;-54
2023/06/26 12:35:01;;;;;;;5.23;2.50;;;;;;;;;;5073322;28;20283;-54
2023/06/26 12:37:27;;;;;;;8.83;2.33;;;;;;;;;;5073020;28;20618;-52
2023/06/26 12:39:54;;;;;;;4.40;2.50;;;;;;;;;;5073310;28;20195;-53
2023/06/26 12:42:21;;;;;;;3.50;2.47;;;;;;;;;;5073224;28;20358;-53
2023/06/26 12:44:48;;;;;;;6.97;2.30;;;;;;;;;;5073210;28;20202;-53
2023/06/26 12:47:38;;;;;;;3.67;2.20;;;;;;;;;;5073031;28;20708;-53
2023/06/26 12:50:06;;;;;;;5.83;2.40;;;;;;;;;;5061423;28;20201;-53
2023/06/26 12:52:32;;;;;;;4.17;2.20;;;;;;;;;;5072198;28;20219;-53
2023/06/26 12:54:58;;;;;;;4.13;1.97;;;;;;;;;;5072750;28;20203;-53
2023/06/26 12:57:25;;;;;;;3.60;2.37;;;;;;;;;;5072583;28;20189;-53
2023/06/26 12:59:51;;;;;;;3.83;2.33;;;;;;;;;;5072445;28;20213;-53
2023/06/26 13:02:17;;;;;;;5.03;2.00;;;;;;;;;;5072285;28;20281;-53
2023/06/26 13:04:44;;;;;;;4.37;1.90;;;;;;;;;;5071804;28;20290;-53
2023/06/26 13:07:11;;;;;;;4.20;1.80;;;;;;;;;;5072011;28;20196;-53
2023/06/26 13:09:38;;;;;;;3.50;2.23;;;;;;;;;;5072435;28;20584;-53
2023/06/26 13:12:04;;;;;;;2.40;2.20;;;;;;;;;;5072189;28;20734;-54
2023/06/26 13:14:30;;;;;;;5.40;2.43;;;;;;;;;;5072187;28;20207;-53
2023/06/26 13:16:56;;;;;;;3.60;2.13;;;;;;;;;;5072024;28;20195;-53
2023/06/26 13:19:22;;;;;;;3.60;1.93;;;;;;;;;;5072132;28;20245;-54
2023/06/26 13:21:48;;;;;;;5.67;2.20;;;;;;;;;;5072157;28;20681;-54
2023/06/26 13:24:15;;;;;;;3.80;2.30;;;;;;;;;;5072049;28;20205;-54
2023/06/26 13:26:41;;;;;;;3.23;2.13;;;;;;;;;;5072270;28;20252;-54
2023/06/26 13:29:07;;;;;;;2.97;1.90;;;;;;;;;;5072411;28;20784;-53
2023/06/26 13:31:33;;;;;;;4.47;2.27;;;;;;;;;;5072424;28;20192;-56
2023/06/26 13:34:00;;;;;;;3.33;1.90;;;;;;;;;;5072146;28;20275;-54
2023/06/26 13:36:26;;;;;;;5.10;1.80;;;;;;;;;;5072130;28;20203;-54
2023/06/26 13:38:55;;;;;;;3.10;1.93;;;;;;;;;;5072233;28;20206;-54
2023/06/26 13:41:23;;;;;;;2.77;1.70;;;;;;;;;;5072078;28;20648;-53
2023/06/26 13:43:49;;;;;;;3.13;1.70;;;;;;;;;;5072118;28;20233;-54
2023/06/26 13:46:16;;;;;;;3.83;2.07;;;;;;;;;;5071983;28;20199;-54
2023/06/26 13:48:41;;;;;;;5.03;2.03;;;;;;;;;;5071717;28;20260;-54
2023/06/26 13:51:07;;;;;;;3.63;2.17;;;;;;;;;;5071745;28;20199;-53
2023/06/26 13:53:33;;;;;;;3.10;1.90;;;;;;;;;;5072025;28;20262;-53
2023/06/26 13:55:59;;;;;;;3.83;1.97;;;;;;;;;;5071857;28;20198;-53
2023/06/26 13:58:29;;;;;;;5.43;2.20;;;;;;;;;;5071809;28;20598;-54
2023/06/26 14:00:55;;;;;;;4.37;1.97;;;;;;;;;;5071586;28;20206;-54
2023/06/26 14:03:21;;;;;;;2.80;1.80;;;;;;;;;;5071751;28;20237;-54
2023/06/26 14:05:48;;;;;;;4.13;1.90;;;;;;;;;;5070932;28;20253;-53
2023/06/26 14:08:14;;;;;;;2.73;2.10;;;;;;;;;;5070893;28;20222;-54
2023/06/26 14:10:40;;;;;;;3.17;2.00;;;;;;;;;;5070928;28;20248;-54
2023/06/26 14:13:06;;;;;;;2.70;1.90;;;;;;;;;;5070641;28;20241;-54
2023/06/26 14:15:34;;;;;;;3.87;2.17;;;;;;;;;;5070753;28;20206;-54
2023/06/26 14:18:02;;;;;;;4.80;2.40;;;;;;;;;;5069700;28;20255;-54
2023/06/26 14:20:29;;;;;;;4.83;2.10;;;;;;;;;;5070681;28;20256;-54
2023/06/26 14:22:55;;;;;;;3.13;1.97;;;;;;;;;;5070213;28;20229;-53
2023/06/26 14:25:21;;;;;;;3.23;1.90;;;;;;;;;;5067705;28;20287;-54
2023/06/26 14:27:47;;;;;;;4.43;2.10;;;;;;;;;;5069456;28;20280;-53
2023/06/26 14:30:13;;;;;;;2.60;1.90;;;;;;;;;;5069292;28;20204;-54
2023/06/26 14:32:41;;;;;;;2.63;2.20;;;;;;;;;;5069605;28;20246;-54
2023/06/26 14:35:07;;;;;;;3.77;1.93;;;;;;;;;;5069449;28;20767;-54
2023/06/26 14:37:33;;;;;;;3.17;2.10;;;;;;;;;;5069540;28;20205;-53
2023/06/26 14:39:59;;;;;;;2.50;1.67;;;;;;;;;;5069451;28;20204;-54